Aviation Digital Data Service (ADDS)

Output produced by METARs form (0940 UTC 22 September 2017)
found at http://www.aviationweather.gov/adds/metars/
 
KTHV 220853Z AUTO 00000KT 7SM CLR 15/15 A3006 RMK AO2 SLP178 T01500150 55001
KTHV 220753Z AUTO 00000KT 9SM CLR 16/16 A3006 RMK AO2 SLP177 T01610161
KTHV 220653Z AUTO 28003KT 10SM CLR 17/17 A3005 RMK AO2 SLP175 T01670167
KTHV 220553Z AUTO 00000KT 10SM CLR 17/17 A3006 RMK AO2 SLP178 T01720172 10206 20167 58001
KTHV 220453Z AUTO 00000KT 10SM CLR 17/17 A3007 RMK AO2 SLP180 T01720172 402940139 TSNO
KTHV 220353Z AUTO 00000KT 10SM CLR 18/18 A3007 RMK AO2 SLP181 T01780178
KTHV 220253Z AUTO 00000KT 10SM CLR 18/18 A3007 RMK AO2 SLP180 T01780178 53009
KTHV 220153Z AUTO 00000KT 10SM CLR 18/18 A3005 RMK AO2 SLP175 T01780178
KTHV 220053Z AUTO 00000KT 10SM CLR 19/18 A3005 RMK AO2 SLP174 T01890183
KTHV 212353Z AUTO 00000KT 10SM CLR 21/19 A3004 RMK AO2 SLP172 T02060189 10294 20206 53005
KTHV 212253Z AUTO 00000KT 10SM CLR 23/20 A3003 RMK AO2 SLP170 T02330200
KTHV 212153Z AUTO 36005KT 10SM CLR 28/17 A3003 RMK AO2 SLP167 T02780172
KTHV 212053Z AUTO 34005KT 10SM CLR 29/17 A3002 RMK AO2 SLP166 T02890172 55008
KTHV 211953Z AUTO 34006KT 10SM FEW049 29/18 A3002 RMK AO2 SLP166 T02940178
KTHV 211853Z AUTO 33006KT 10SM CLR 28/18 A3004 RMK AO2 SLP171 T02780178
KTHV 211753Z AUTO 03007KT 10SM CLR 28/18 A3005 RMK AO2 SLP174 T02830183 10283 20161 58011
KTHV 211653Z AUTO VRB05KT 10SM CLR 28/19 A3006 RMK AO2 SLP180 T02780194
KTHV 211553Z AUTO VRB03KT 10SM CLR 26/19 A3007 RMK AO2 SLP183 T02610194
KTHV 211453Z AUTO 00000KT 10SM CLR 25/19 A3008 RMK AO2 SLP185 T02500189 50000
KTHV 211353Z AUTO 00000KT 10SM CLR 23/18 A3008 RMK AO2 SLP187 T02280183
KTHV 211253Z AUTO 28003KT 10SM CLR 21/19 A3008 RMK AO2 SLP187 T02110189
KTHV 211153Z AUTO 00000KT 10SM CLR 16/16 A3008 RMK AO2 SLP186 T01610161 10161 20139 51014
KTHV 211053Z AUTO 00000KT 10SM CLR 16/16 A3007 RMK AO2 SLP184 T01560156
KTHV 210953Z AUTO 00000KT 10SM CLR 16/16 A3005 RMK AO2 SLP176 T01560156
KTHV 210853Z AUTO 00000KT 10SM CLR 14/14 A3004 RMK AO2 SLP171 T01390139 53005
KTHV 210753Z AUTO 00000KT 9SM CLR 14/14 A3002 RMK AO2 SLP165 T01390139
KTHV 210653Z AUTO 00000KT 10SM CLR 14/14 A3001 RMK AO2 SLP162 T01440144
KTHV 210553Z AUTO 00000KT 10SM CLR 15/15 A3002 RMK AO2 SLP165 T01500150 10200 20150 51008
KTHV 210453Z AUTO 00000KT 10SM CLR 15/15 A3001 RMK AO2 SLP161 T01500150 402940150
KTHV 210353Z AUTO 00000KT 10SM CLR 16/16 A3001 RMK AO2 SLP160 T01610161
KTHV 210253Z AUTO 00000KT 10SM CLR 17/17 A2999 RMK AO2 SLP156 T01670167 53010
KTHV 210153Z AUTO 00000KT 10SM CLR 17/17 A2998 RMK AO2 SLP151 T01720172
KTHV 210053Z AUTO 00000KT 10SM CLR 18/18 A2997 RMK AO2 SLP147 T01780178
KTHV 202353Z AUTO 00000KT 10SM CLR 20/19 A2996 RMK AO2 SLP146 T02000189 10294 20194 51008
KTHV 202253Z AUTO 25004KT 10SM CLR 23/19 A2996 RMK AO2 SLP143 T02330194
KTHV 202153Z AUTO VRB04KT 10SM CLR 28/18 A2995 RMK AO2 SLP139 T02780178